createdAt,value
2023-03-18T00:00:47.857Z,35.70
2023-03-18T00:03:15.820Z,35.07
2023-03-18T00:05:43.077Z,35.90
2023-03-18T00:08:10.678Z,28.67
2023-03-18T00:10:38.041Z,30.33
2023-03-18T00:13:05.373Z,40.20
2023-03-18T00:15:32.571Z,30.90
2023-03-18T00:17:59.857Z,33.33
2023-03-18T00:20:38.719Z,33.30
2023-03-18T00:23:08.630Z,37.17
2023-03-18T00:25:36.787Z,33.20
2023-03-18T00:28:09.806Z,35.80
2023-03-18T00:30:39.356Z,37.40
2023-03-18T00:33:07.095Z,32.77
2023-03-18T00:35:36.467Z,33.50
2023-03-18T00:38:07.672Z,38.20
2023-03-18T00:40:55.625Z,34.20
2023-03-18T00:43:29.437Z,36.50
2023-03-18T00:45:57.683Z,35.37
2023-03-18T00:48:25.473Z,39.20
2023-03-18T00:50:56.770Z,35.07
2023-03-18T00:53:26.195Z,31.03
2023-03-18T00:55:53.886Z,33.63
2023-03-18T00:58:21.183Z,36.53
2023-03-18T01:00:48.689Z,36.97
2023-03-18T01:03:17.747Z,31.43
2023-03-18T01:05:45.335Z,35.63
2023-03-18T01:08:12.601Z,36.90
2023-03-18T01:10:39.954Z,36.10
2023-03-18T01:13:08.059Z,34.57
2023-03-18T01:15:35.792Z,38.80
2023-03-18T01:18:05.042Z,35.17
2023-03-18T01:20:32.412Z,33.33
2023-03-18T01:23:00.821Z,35.77
2023-03-18T01:25:28.760Z,33.10
2023-03-18T01:27:55.969Z,35.13
2023-03-18T01:30:23.863Z,36.30
2023-03-18T01:32:51.551Z,34.73
2023-03-18T01:35:20.138Z,37.60
2023-03-18T01:37:47.344Z,40.77
2023-03-18T01:40:16.126Z,31.83
2023-03-18T01:42:45.411Z,38.40
2023-03-18T01:45:19.540Z,33.53
2023-03-18T01:47:47.268Z,32.50
2023-03-18T01:50:16.801Z,32.37
2023-03-18T01:52:45.611Z,35.97
2023-03-18T01:55:19.275Z,34.00
2023-03-18T01:57:47.625Z,38.17
2023-03-18T02:00:16.548Z,35.03
2023-03-18T02:02:45.259Z,28.50
2023-03-18T02:05:13.397Z,33.97
2023-03-18T02:07:42.813Z,32.47
2023-03-18T02:10:12.435Z,34.77
2023-03-18T02:12:40.967Z,27.53
2023-03-18T02:15:11.486Z,36.20
2023-03-18T02:17:41.953Z,34.67
2023-03-18T02:20:34.289Z,29.90
2023-03-18T02:23:24.288Z,29.77
2023-03-18T02:25:54.642Z,27.67
2023-03-18T02:28:26.301Z,26.67
2023-03-18T02:30:55.870Z,25.80
2023-03-18T02:33:25.024Z,30.80
2023-03-18T02:35:54.159Z,28.37
2023-03-18T02:38:22.988Z,31.87
2023-03-18T02:40:50.361Z,31.73
2023-03-18T02:43:31.525Z,26.03
2023-03-18T02:46:05.472Z,31.07
2023-03-18T02:48:35.278Z,26.47
2023-03-18T02:51:03.275Z,26.73
2023-03-18T02:53:30.589Z,23.10
2023-03-18T02:55:58.215Z,27.13
2023-03-18T02:58:26.003Z,31.70
2023-03-18T03:00:53.524Z,26.10
2023-03-18T03:03:21.348Z,26.73
2023-03-18T03:05:48.731Z,23.43
2023-03-18T03:08:16.283Z,23.53
2023-03-18T03:10:43.641Z,24.40
2023-03-18T03:13:11.638Z,25.73
2023-03-18T03:15:39.419Z,27.10
2023-03-18T03:18:07.287Z,27.40
2023-03-18T03:20:35.701Z,20.57
2023-03-18T03:23:03.548Z,24.50
2023-03-18T03:25:30.917Z,23.23
2023-03-18T03:27:58.391Z,22.60
2023-03-18T03:30:26.337Z,24.87
2023-03-18T03:32:53.601Z,29.20
2023-03-18T03:35:21.499Z,26.27
2023-03-18T03:37:48.754Z,28.30
2023-03-18T03:40:18.086Z,31.27
2023-03-18T03:42:45.634Z,29.43
2023-03-18T03:45:14.027Z,28.60
2023-03-18T03:47:41.714Z,25.50
2023-03-18T03:50:10.466Z,31.63
2023-03-18T03:52:38.997Z,27.90
2023-03-18T03:55:09.586Z,27.07
2023-03-18T03:57:37.219Z,27.77
2023-03-18T04:00:05.568Z,25.43
2023-03-18T04:02:32.757Z,28.73
2023-03-18T04:05:00.364Z,30.13
2023-03-18T04:07:27.865Z,32.03
2023-03-18T04:09:56.091Z,33.33
2023-03-18T04:12:23.488Z,21.70
2023-03-18T04:14:51.866Z,25.80
2023-03-18T04:17:19.168Z,30.67
2023-03-18T04:19:46.340Z,35.00
2023-03-18T04:22:13.528Z,27.50
2023-03-18T04:24:40.904Z,30.03
2023-03-18T04:27:08.130Z,29.20
2023-03-18T04:29:35.333Z,33.27
2023-03-18T04:32:02.495Z,24.13
2023-03-18T04:34:29.736Z,28.70
2023-03-18T04:36:56.935Z,26.20
2023-03-18T04:39:24.119Z,22.93
2023-03-18T04:41:51.862Z,23.43
2023-03-18T04:44:19.328Z,24.17
2023-03-18T04:46:46.570Z,26.87
2023-03-18T04:49:13.766Z,25.30
2023-03-18T04:51:41.093Z,25.20
2023-03-18T04:54:08.324Z,22.43
2023-03-18T04:56:35.793Z,22.00
2023-03-18T04:59:03.002Z,22.20
2023-03-18T05:01:30.221Z,20.67
2023-03-18T05:03:57.490Z,19.47
2023-03-18T05:06:27.093Z,16.83
2023-03-18T05:08:54.696Z,20.30
2023-03-18T05:11:21.915Z,20.70
2023-03-18T05:13:49.213Z,21.50
2023-03-18T05:16:16.481Z,21.93
2023-03-18T05:18:44.718Z,18.10
2023-03-18T05:21:11.987Z,22.90
2023-03-18T05:23:39.572Z,18.03
2023-03-18T05:26:06.809Z,20.07
2023-03-18T05:28:34.579Z,23.57
2023-03-18T05:31:01.812Z,18.93
2023-03-18T05:33:29.666Z,20.30
2023-03-18T05:35:57.138Z,21.30
2023-03-18T05:38:24.443Z,19.47
2023-03-18T05:40:51.985Z,20.23
2023-03-18T05:43:20.193Z,19.00
2023-03-18T05:45:47.497Z,15.90
2023-03-18T05:48:14.752Z,18.17
2023-03-18T05:50:42.646Z,20.53
2023-03-18T05:53:11.718Z,18.33
2023-03-18T05:55:40.404Z,21.20
2023-03-18T05:58:07.846Z,18.87
2023-03-18T06:00:35.199Z,21.17
2023-03-18T06:03:02.927Z,17.20
2023-03-18T06:05:31.538Z,17.77
2023-03-18T06:07:59.476Z,17.77
2023-03-18T06:10:27.076Z,15.97
2023-03-18T06:12:56.004Z,14.23
2023-03-18T06:15:24.476Z,17.83
2023-03-18T06:17:52.846Z,15.87
2023-03-18T06:20:20.221Z,17.33
2023-03-18T06:22:49.917Z,17.77
2023-03-18T06:25:21.051Z,19.63
2023-03-18T06:27:48.317Z,17.77
2023-03-18T06:30:16.156Z,14.23
2023-03-18T06:32:43.952Z,15.23
2023-03-18T06:35:12.168Z,18.40
2023-03-18T06:37:40.143Z,19.40
2023-03-18T06:40:08.304Z,22.73
2023-03-18T06:42:35.794Z,15.00
2023-03-18T06:45:03.162Z,18.03
2023-03-18T06:47:30.644Z,17.83
2023-03-18T06:49:58.127Z,20.97
2023-03-18T06:52:25.480Z,15.30
2023-03-18T06:54:53.483Z,16.67
2023-03-18T06:57:21.155Z,19.10
2023-03-18T06:59:48.355Z,22.27
2023-03-18T07:02:15.700Z,19.50
2023-03-18T07:04:43.255Z,19.43
2023-03-18T07:07:13.948Z,23.83
2023-03-18T07:09:41.193Z,18.87
2023-03-18T07:12:08.528Z,18.43
2023-03-18T07:14:35.770Z,24.30
2023-03-18T07:17:03.943Z,21.83
2023-03-18T07:19:33.196Z,33.97
2023-03-18T07:22:00.758Z,24.53
2023-03-18T07:24:28.505Z,24.13
2023-03-18T07:26:55.730Z,18.03
2023-03-18T07:29:23.398Z,19.30
2023-03-18T07:31:51.314Z,19.50
2023-03-18T07:34:19.291Z,20.40
2023-03-18T07:36:46.939Z,13.90
2023-03-18T07:39:14.188Z,17.10
2023-03-18T07:41:41.391Z,18.33
2023-03-18T07:44:08.596Z,18.60
2023-03-18T07:46:35.977Z,18.17
2023-03-18T07:49:03.285Z,17.77
2023-03-18T07:51:30.805Z,13.97
2023-03-18T07:53:59.209Z,16.47
2023-03-18T07:56:27.218Z,11.63
2023-03-18T07:58:54.402Z,18.17
2023-03-18T08:01:21.651Z,13.80
2023-03-18T08:03:48.894Z,15.17
2023-03-18T08:06:18.104Z,21.67
2023-03-18T08:08:46.766Z,14.27
2023-03-18T08:11:14.798Z,19.63
2023-03-18T08:13:42.018Z,17.77
2023-03-18T08:16:09.405Z,17.47
2023-03-18T08:18:36.799Z,19.47
2023-03-18T08:21:04.072Z,15.53
2023-03-18T08:23:31.335Z,15.63
2023-03-18T08:25:59.357Z,19.00
2023-03-18T08:28:27.384Z,12.33
2023-03-18T08:30:55.887Z,13.73
2023-03-18T08:33:23.596Z,15.83
2023-03-18T08:35:52.085Z,15.80
2023-03-18T08:38:19.684Z,14.27
2023-03-18T08:40:47.428Z,13.50
2023-03-18T08:43:14.794Z,17.40
2023-03-18T08:45:42.406Z,20.53
2023-03-18T08:48:09.786Z,15.00
2023-03-18T08:50:37.348Z,16.77
2023-03-18T08:53:04.685Z,18.80
2023-03-18T08:55:37.310Z,16.43
2023-03-18T08:58:05.863Z,14.83
2023-03-18T09:00:33.963Z,16.60
2023-03-18T09:03:01.740Z,14.97
2023-03-18T09:05:30.430Z,15.13
2023-03-18T09:07:58.819Z,17.43
2023-03-18T09:10:26.404Z,15.77
2023-03-18T09:12:53.833Z,13.43
2023-03-18T09:15:21.068Z,15.37
2023-03-18T09:18:03.838Z,13.93
2023-03-18T09:20:36.477Z,12.93
2023-03-18T09:23:15.566Z,16.33
2023-03-18T09:26:03.749Z,15.33
2023-03-18T09:28:48.801Z,25.23
2023-03-18T09:31:22.099Z,15.00
2023-03-18T09:33:49.680Z,13.67
2023-03-18T09:36:25.568Z,14.77
2023-03-18T09:38:52.934Z,13.27
2023-03-18T09:41:43.180Z,14.33
2023-03-18T09:44:53.499Z,15.60
2023-03-18T09:47:34.238Z,12.90
2023-03-18T09:52:53.823Z,15.40
2023-03-18T09:58:45.074Z,17.37
2023-03-18T10:01:23.360Z,14.03
2023-03-18T10:04:12.113Z,13.47
2023-03-18T10:07:10.604Z,18.17
2023-03-18T10:10:35.644Z,12.20
2023-03-18T10:16:13.080Z,13.97
2023-03-18T10:18:43.330Z,18.07
2023-03-18T10:21:19.842Z,16.73
2023-03-18T10:24:04.561Z,14.50
2023-03-18T10:26:33.452Z,14.67
2023-03-18T10:29:13.478Z,14.27
2023-03-18T10:31:55.971Z,15.73
2023-03-18T10:34:24.746Z,14.43
2023-03-18T10:37:15.177Z,15.37
2023-03-18T10:39:42.758Z,13.83
2023-03-18T10:42:30.274Z,14.87
2023-03-18T10:45:04.874Z,15.53
2023-03-18T10:47:35.009Z,15.87
2023-03-18T10:50:02.205Z,14.33
2023-03-18T10:52:46.484Z,14.83
2023-03-18T10:55:15.837Z,14.20
2023-03-18T10:57:43.096Z,13.43
2023-03-18T11:00:26.698Z,14.87
2023-03-18T11:02:54.793Z,12.80
2023-03-18T11:05:21.972Z,14.87
2023-03-18T11:07:58.907Z,16.47
2023-03-18T11:10:28.207Z,12.27
2023-03-18T11:13:00.168Z,17.07
2023-03-18T11:15:27.417Z,13.77
2023-03-18T11:17:58.756Z,14.75
2023-03-18T11:20:47.767Z,14.13
2023-03-18T11:23:19.432Z,11.00
2023-03-18T11:25:49.615Z,14.20
2023-03-18T11:28:27.121Z,13.32
2023-03-18T11:30:56.945Z,12.32
2023-03-18T11:33:24.906Z,16.33
2023-03-18T11:35:56.226Z,17.60
2023-03-18T11:38:28.789Z,13.63
2023-03-18T11:41:15.296Z,16.17
2023-03-18T11:43:55.917Z,11.65
2023-03-18T11:46:24.942Z,13.38
2023-03-18T11:48:52.298Z,16.33
2023-03-18T11:51:40.375Z,14.50
2023-03-18T11:54:07.858Z,12.40
2023-03-18T11:56:47.600Z,12.07
2023-03-18T11:59:21.043Z,15.40
2023-03-18T12:01:48.401Z,15.60
2023-03-18T12:04:34.731Z,15.52
2023-03-18T12:07:20.754Z,14.70
2023-03-18T12:10:10.647Z,15.45
2023-03-18T12:12:47.625Z,13.02
2023-03-18T12:15:21.871Z,12.00
2023-03-18T12:18:02.120Z,18.00
2023-03-18T12:20:34.861Z,13.07
2023-03-18T12:23:04.190Z,15.05
2023-03-18T12:25:46.675Z,12.85
2023-03-18T12:28:20.776Z,12.35
2023-03-18T12:30:49.420Z,15.40
2023-03-18T12:33:19.963Z,13.43
2023-03-18T12:35:59.608Z,14.02
2023-03-18T12:38:32.884Z,12.93
2023-03-18T12:41:00.200Z,11.98
2023-03-18T12:43:27.395Z,15.27
2023-03-18T12:45:58.890Z,12.90
2023-03-18T12:48:44.360Z,14.10
2023-03-18T12:51:22.027Z,10.40
2023-03-18T12:53:51.138Z,14.57
2023-03-18T12:56:21.663Z,13.77
2023-03-18T12:58:51.145Z,14.98
2023-03-18T13:01:22.277Z,14.38
2023-03-18T13:03:52.678Z,11.88
2023-03-18T13:06:20.302Z,14.13
2023-03-18T13:08:55.682Z,17.95
2023-03-18T13:11:32.687Z,14.50
2023-03-18T13:14:01.892Z,15.45
2023-03-18T13:16:29.366Z,13.57
2023-03-18T13:18:58.264Z,14.48
2023-03-18T13:21:27.159Z,16.55
2023-03-18T13:24:04.085Z,15.60
2023-03-18T13:26:50.290Z,17.67
2023-03-18T13:29:25.169Z,14.38
2023-03-18T13:31:55.181Z,17.75
2023-03-18T13:34:26.513Z,16.52
2023-03-18T13:37:00.039Z,14.85
2023-03-18T13:39:27.303Z,14.88
2023-03-18T13:42:30.380Z,12.18
2023-03-18T13:45:00.699Z,12.85
2023-03-18T13:47:30.789Z,14.38
2023-03-18T13:50:25.395Z,14.23
2023-03-18T13:52:55.320Z,14.93
2023-03-18T13:55:28.804Z,17.63
2023-03-18T13:57:57.696Z,13.43
2023-03-18T14:00:31.078Z,17.13
2023-03-18T14:03:24.915Z,15.02
2023-03-18T14:05:54.288Z,14.13
2023-03-18T14:08:39.678Z,15.32
2023-03-18T14:11:23.247Z,16.30
2023-03-18T14:13:52.707Z,20.80
2023-03-18T14:16:28.577Z,17.60
2023-03-18T14:19:01.915Z,15.30
2023-03-18T14:21:30.318Z,16.40
2023-03-18T14:24:22.469Z,16.52
2023-03-18T14:26:50.410Z,14.52
2023-03-18T14:29:25.274Z,16.80
2023-03-18T14:32:08.358Z,19.85
2023-03-18T14:34:53.437Z,15.77
2023-03-18T14:37:29.338Z,14.02
2023-03-18T14:40:06.211Z,13.15
2023-03-18T14:42:42.072Z,16.27
2023-03-18T14:45:19.392Z,13.43
2023-03-18T14:47:49.172Z,16.20
2023-03-18T14:50:19.105Z,14.15
2023-03-18T14:52:51.156Z,15.57
2023-03-18T14:55:31.361Z,18.40
2023-03-18T14:57:58.963Z,16.77
2023-03-18T15:00:26.454Z,19.33
2023-03-18T15:03:01.040Z,19.17
2023-03-18T15:05:32.440Z,17.98
2023-03-18T15:08:00.275Z,19.50
2023-03-18T15:10:30.152Z,21.08
2023-03-18T15:13:26.997Z,20.27
2023-03-18T15:15:56.434Z,21.10
2023-03-18T15:18:26.762Z,22.55
2023-03-18T15:21:14.186Z,19.00
2023-03-18T15:23:43.163Z,23.90
2023-03-18T15:26:16.927Z,25.45
2023-03-18T15:28:47.410Z,25.52
2023-03-18T15:31:24.528Z,19.80
2023-03-18T15:34:11.996Z,22.63
2023-03-18T15:36:43.164Z,24.80
2023-03-18T15:39:30.753Z,29.20
2023-03-18T15:41:58.633Z,43.70
2023-03-18T15:44:33.499Z,47.33
2023-03-18T15:47:07.628Z,49.53
2023-03-18T15:49:43.599Z,42.13
2023-03-18T15:52:11.093Z,44.35
2023-03-18T15:54:41.841Z,29.98
2023-03-18T15:57:13.653Z,33.88
2023-03-18T15:59:41.392Z,26.77
2023-03-18T16:02:18.386Z,30.70
2023-03-18T16:04:46.748Z,29.20
2023-03-18T16:07:18.348Z,27.20
2023-03-18T16:09:45.862Z,26.63
2023-03-18T16:12:13.154Z,27.83
2023-03-18T16:14:42.122Z,28.58
2023-03-18T16:17:12.923Z,32.50
2023-03-18T16:19:40.318Z,33.78
2023-03-18T16:22:07.903Z,40.30
2023-03-18T16:24:35.342Z,36.75
2023-03-18T16:27:03.878Z,37.60
2023-03-18T16:29:32.841Z,36.30
2023-03-18T16:32:00.807Z,35.03
2023-03-18T16:34:28.742Z,48.28
2023-03-18T16:36:56.182Z,68.00
2023-03-18T16:39:24.658Z,73.85
2023-03-18T16:41:52.702Z,105.97
2023-03-18T16:44:23.749Z,143.48
2023-03-18T16:46:53.802Z,147.68
2023-03-18T16:49:23.533Z,169.80
2023-03-18T16:51:51.789Z,179.95
2023-03-18T16:54:21.727Z,190.38
2023-03-18T16:56:51.394Z,167.75
2023-03-18T16:59:19.108Z,130.63
2023-03-18T17:01:46.993Z,123.53
2023-03-18T17:04:23.894Z,123.22
2023-03-18T17:06:52.386Z,133.85
2023-03-18T17:09:20.485Z,154.27
2023-03-18T17:11:51.290Z,187.07
2023-03-18T17:14:37.917Z,144.43
2023-03-18T17:17:07.132Z,127.18
2023-03-18T17:19:36.054Z,122.88
2023-03-18T17:22:03.519Z,125.93
2023-03-18T17:24:31.259Z,137.45
2023-03-18T17:26:58.572Z,191.85
2023-03-18T17:29:26.902Z,221.57
2023-03-18T17:31:54.789Z,191.68
2023-03-18T17:34:22.757Z,168.85
2023-03-18T17:36:50.352Z,156.90
2023-03-18T17:39:33.026Z,140.30
2023-03-18T17:42:04.500Z,156.98
2023-03-18T17:44:31.774Z,150.43
2023-03-18T17:46:59.079Z,141.40
2023-03-18T17:49:28.861Z,141.27
2023-03-18T17:51:56.874Z,132.70
2023-03-18T17:54:27.386Z,289.73
2023-03-18T17:56:54.697Z,482.07
2023-03-18T17:59:22.212Z,650.80
2023-03-18T18:01:58.480Z,753.57
2023-03-18T18:04:26.190Z,689.27
2023-03-18T18:06:54.387Z,666.70
2023-03-18T18:09:22.057Z,609.43
2023-03-18T18:11:50.816Z,545.23
2023-03-18T18:14:31.766Z,336.67
2023-03-18T18:16:59.660Z,225.43
2023-03-18T18:19:27.088Z,194.70
2023-03-18T18:21:54.942Z,175.17
2023-03-18T18:24:31.569Z,182.13
2023-03-18T18:26:58.806Z,168.20
2023-03-18T18:29:28.539Z,172.07
2023-03-18T18:31:55.871Z,166.40
2023-03-18T18:34:23.048Z,157.97
2023-03-18T18:36:51.034Z,280.47
2023-03-18T18:39:18.268Z,235.73
2023-03-18T18:41:46.444Z,223.07
2023-03-18T18:44:13.906Z,187.37
2023-03-18T18:46:41.299Z,192.43
2023-03-18T18:49:18.487Z,203.77
2023-03-18T18:51:46.700Z,184.87
2023-03-18T18:54:14.077Z,201.60
2023-03-18T18:56:43.846Z,225.90
2023-03-18T18:59:24.750Z,211.43
2023-03-18T19:01:52.154Z,213.83
2023-03-18T19:04:21.849Z,228.07
2023-03-18T19:06:52.804Z,246.10
2023-03-18T19:09:22.011Z,250.63
2023-03-18T19:11:50.200Z,261.33
2023-03-18T19:14:18.024Z,308.27
2023-03-18T19:16:45.342Z,352.60
2023-03-18T19:19:16.556Z,365.27
2023-03-18T19:21:43.848Z,402.47
2023-03-18T19:24:30.998Z,339.40
2023-03-18T19:26:59.459Z,306.80
2023-03-18T19:29:27.017Z,281.00
2023-03-18T19:31:54.666Z,258.97
2023-03-18T19:34:23.196Z,254.77
2023-03-18T19:36:53.394Z,226.07
2023-03-18T19:39:22.392Z,217.73
2023-03-18T19:41:49.808Z,209.67
2023-03-18T19:44:21.680Z,187.93
2023-03-18T19:46:49.506Z,180.67
2023-03-18T19:49:26.309Z,180.73
2023-03-18T19:51:54.041Z,194.80
2023-03-18T19:54:34.424Z,189.90
2023-03-18T19:57:13.002Z,198.03
2023-03-18T19:59:41.164Z,197.30
2023-03-18T20:02:19.966Z,184.57
2023-03-18T20:04:49.282Z,187.20
2023-03-18T20:07:17.487Z,195.77
2023-03-18T20:09:45.169Z,200.97
2023-03-18T20:12:31.213Z,199.67
2023-03-18T20:14:58.389Z,197.23
2023-03-18T20:17:30.470Z,210.43
2023-03-18T20:19:57.849Z,245.90
2023-03-18T20:22:35.716Z,256.43
2023-03-18T20:25:03.541Z,267.60
2023-03-18T20:27:31.543Z,291.77
2023-03-18T20:29:59.089Z,307.37
2023-03-18T20:32:26.581Z,299.67
2023-03-18T20:34:53.762Z,307.67
2023-03-18T20:37:22.972Z,293.10
2023-03-18T20:39:50.587Z,295.50
2023-03-18T20:42:18.164Z,264.43
2023-03-18T20:44:46.295Z,254.23
2023-03-18T20:47:14.061Z,225.90
2023-03-18T20:49:44.584Z,217.43
2023-03-18T20:52:24.325Z,192.20
2023-03-18T20:54:51.949Z,200.47
2023-03-18T20:57:19.420Z,182.90
2023-03-18T20:59:47.250Z,179.67
2023-03-18T21:02:31.454Z,176.97
2023-03-18T21:04:59.164Z,180.10
2023-03-18T21:07:27.410Z,169.07
2023-03-18T21:09:54.819Z,179.33
2023-03-18T21:12:22.856Z,175.77
2023-03-18T21:14:50.660Z,181.60
2023-03-18T21:17:21.997Z,173.70
2023-03-18T21:19:49.842Z,163.93
2023-03-18T21:22:21.758Z,161.33
2023-03-18T21:24:49.583Z,160.07
2023-03-18T21:27:26.060Z,159.00
2023-03-18T21:29:54.027Z,155.43
2023-03-18T21:32:34.404Z,171.10
2023-03-18T21:35:01.615Z,165.47
2023-03-18T21:37:28.793Z,181.30
2023-03-18T21:39:56.311Z,229.90
2023-03-18T21:42:28.051Z,225.97
2023-03-18T21:44:56.602Z,198.90
2023-03-18T21:47:25.088Z,183.13
2023-03-18T21:49:52.543Z,172.57
2023-03-18T21:52:22.782Z,160.00
2023-03-18T21:54:50.085Z,158.33
2023-03-18T21:57:22.060Z,140.97
2023-03-18T21:59:49.664Z,142.13
2023-03-18T22:02:27.660Z,144.53
2023-03-18T22:04:56.933Z,145.77
2023-03-18T22:07:24.931Z,161.33
2023-03-18T22:09:52.412Z,161.50
2023-03-18T22:12:26.698Z,159.93
2023-03-18T22:14:54.223Z,150.83
2023-03-18T22:17:21.492Z,140.40
2023-03-18T22:19:48.931Z,147.93
2023-03-18T22:22:17.420Z,149.07
2023-03-18T22:24:45.098Z,201.07
2023-03-18T22:27:22.736Z,302.37
2023-03-18T22:29:51.037Z,343.10
2023-03-18T22:32:33.601Z,272.57
2023-03-18T22:35:00.884Z,209.60
2023-03-18T22:37:28.145Z,185.67
2023-03-18T22:39:55.393Z,162.50
2023-03-18T22:42:24.314Z,179.90
2023-03-18T22:44:51.764Z,184.00
2023-03-18T22:47:23.147Z,190.23
2023-03-18T22:49:51.062Z,184.23
2023-03-18T22:52:21.336Z,162.93
2023-03-18T22:54:49.392Z,173.73
2023-03-18T22:57:18.622Z,157.73
2023-03-18T22:59:46.033Z,155.00
2023-03-18T23:02:18.381Z,137.73
2023-03-18T23:04:47.702Z,148.73
2023-03-18T23:07:34.192Z,187.87
2023-03-18T23:10:03.055Z,197.37
2023-03-18T23:12:32.842Z,151.63
2023-03-18T23:15:00.147Z,150.13
2023-03-18T23:17:28.043Z,146.30
2023-03-18T23:19:55.838Z,149.47
2023-03-18T23:22:25.759Z,163.57
2023-03-18T23:24:53.093Z,210.63
2023-03-18T23:27:21.127Z,192.93
2023-03-18T23:29:48.616Z,183.97
2023-03-18T23:32:16.496Z,156.20
2023-03-18T23:34:44.011Z,131.93
2023-03-18T23:37:11.539Z,140.53
2023-03-18T23:39:46.431Z,160.00
2023-03-18T23:42:17.961Z,162.83
2023-03-18T23:44:45.192Z,174.50
2023-03-18T23:47:13.229Z,167.20
2023-03-18T23:49:40.975Z,161.87
2023-03-18T23:52:09.564Z,157.17
2023-03-18T23:54:36.952Z,179.10
2023-03-18T23:57:04.998Z,157.87
2023-03-18T23:59:32.589Z,166.47
